»·PEaware :: N65415 KAJO-KVCV

N65415 :: KAJO-KVCV

FLIGHT INFORMATION

Flight Status: Arrived
Operator: Privately registered:
United States
More flights under this callsign
Pilot: Stephane C. (508)
Aircraft: CESSNA 172 SKYHAWK
(C172)
More flights by this aircraft type
Origin: KAJO Corona Mun
United States
Destination: KVCV Socal Logistics
United States
More flights between these airports :: More routes between these airports
Route: +PDZ V442 APLES
File this flight plan on PilotEdge
Remarks: I11 rating
Altitude:
(Current/Filed)
9,000ft
Speed:
(Current/Filed)
116kts
Departed: 07-Dec-17 08:56 AM
Arrived: 07-Dec-17 10:06 AM
Distance/Time
Traveled:
43nm/1:09
Distance/Time
To Go:
Arrived

Flight Plot

Page will automatically refresh every two minutes.


Map Options




Map Legend


Flown Route
Filed Route
Departure Airport
Arrival Airport
Navaid (VOR, NDB)
Fix

Horizontal Profiles

Position Reports

Time Latitude Longitude Heading Altitude Ground
Speed
07-Dec-17 08:37 33.896962 -117.601719 177 537ft 0kts
07-Dec-17 08:38 33.896962 -117.601719 177 537ft 0kts
07-Dec-17 08:39 33.896962 -117.601719 177 537ft 0kts
07-Dec-17 08:40 33.896962 -117.601719 177 537ft 0kts
07-Dec-17 08:41 33.896962 -117.601719 177 537ft 0kts
07-Dec-17 08:42 33.896962 -117.601719 177 537ft 0kts
07-Dec-17 08:43 33.896962 -117.601719 177 537ft 0kts
07-Dec-17 08:44 33.896962 -117.601719 177 537ft 0kts
07-Dec-17 08:45 33.896962 -117.601719 177 537ft 0kts
07-Dec-17 08:46 33.896962 -117.601719 177 537ft 0kts
07-Dec-17 08:47 33.896962 -117.601719 177 537ft 0kts
07-Dec-17 08:48 33.896962 -117.601719 177 537ft 0kts
07-Dec-17 08:49 33.896962 -117.601719 177 537ft 0kts
07-Dec-17 08:50 33.896962 -117.601719 177 537ft 0kts
07-Dec-17 08:51 33.896962 -117.601719 177 537ft 0kts
07-Dec-17 08:52 33.896962 -117.601719 177 537ft 0kts
07-Dec-17 08:53 33.896962 -117.601719 177 537ft 0kts
07-Dec-17 08:54 33.896962 -117.601719 177 537ft 0kts
07-Dec-17 08:55 33.897215 -117.602403 280 537ft 12kts
07-Dec-17 08:56 33.897188 -117.606662 268 537ft 17kts
07-Dec-17 08:57 33.897261 -117.607487 77 537ft 0kts
07-Dec-17 08:58 33.897261 -117.607487 78 537ft 0kts
07-Dec-17 08:59 33.897261 -117.607487 78 537ft 0kts
07-Dec-17 09:00 33.897276 -117.607452 54 537ft 2kts
07-Dec-17 09:01 33.897659 -117.604269 78 564ft 48kts
07-Dec-17 09:02 33.899269 -117.586849 58 1402ft 55kts
07-Dec-17 09:03 33.905678 -117.570851 66 2228ft 55kts
07-Dec-17 09:04 33.912082 -117.553672 65 2985ft 59kts
07-Dec-17 09:05 33.918948 -117.534586 60 3649ft 64kts
07-Dec-17 09:06 33.930677 -117.517471 44 4279ft 68kts
07-Dec-17 09:07 33.944353 -117.500592 37 4819ft 74kts
07-Dec-17 09:08 33.941185 -117.520310 174 5246ft 110kts
07-Dec-17 09:09 33.914167 -117.529949 219 5823ft 112kts
07-Dec-17 09:10 33.915462 -117.555338 13 6279ft 76kts
07-Dec-17 09:11 33.930377 -117.541717 42 6906ft 64kts
07-Dec-17 09:12 33.943650 -117.527598 53 7507ft 63kts
07-Dec-17 09:13 33.922074 -117.527059 198 8008ft 109kts
07-Dec-17 09:14 33.913874 -117.553328 344 8528ft 80kts
07-Dec-17 09:15 33.923615 -117.539310 75 9048ft 67kts
07-Dec-17 09:16 33.933812 -117.516033 22 9158ft 87kts
07-Dec-17 09:17 33.958045 -117.508524 26 9161ft 98kts
07-Dec-17 09:18 33.981605 -117.492731 29 9066ft 95kts
07-Dec-17 09:19 34.005384 -117.478670 32 9058ft 93kts
07-Dec-17 09:20 34.028349 -117.464976 30 9091ft 93kts
07-Dec-17 09:21 34.051294 -117.449924 37 9091ft 92kts
07-Dec-17 09:22 34.075063 -117.436184 30 9050ft 94kts
07-Dec-17 09:23 34.098039 -117.422249 33 9093ft 92kts
07-Dec-17 09:24 34.121280 -117.407625 30 9039ft 95kts
07-Dec-17 09:25 34.143927 -117.392242 30 9080ft 96kts
07-Dec-17 09:26 34.167832 -117.377508 29 9050ft 97kts
07-Dec-17 09:28 34.192437 -117.364133 31 9037ft 95kts
07-Dec-17 09:29 34.215721 -117.349488 27 9087ft 95kts
07-Dec-17 09:30 34.238792 -117.334719 33 9136ft 97kts
07-Dec-17 09:31 34.262587 -117.319108 26 9116ft 98kts
07-Dec-17 09:32 34.287107 -117.305108 30 9129ft 97kts
07-Dec-17 09:33 34.311135 -117.290420 31 9158ft 98kts
07-Dec-17 09:34 34.335822 -117.276614 24 9181ft 99kts
07-Dec-17 09:35 34.361521 -117.264425 25 9204ft 100kts
07-Dec-17 09:36 34.386939 -117.250594 26 9221ft 98kts
07-Dec-17 09:37 34.411974 -117.236351 30 9242ft 99kts
07-Dec-17 09:38 34.435884 -117.219123 28 9243ft 101kts
07-Dec-17 09:39 34.461130 -117.203299 28 9148ft 104kts
07-Dec-17 09:40 34.486287 -117.186953 29 9090ft 103kts
07-Dec-17 09:41 34.511433 -117.170248 32 9025ft 101kts
07-Dec-17 09:41 34.531847 -117.156206 31 9026ft 101kts
07-Dec-17 09:43 34.563344 -117.145353 6 8905ft 108kts
07-Dec-17 09:44 34.592223 -117.145798 356 8336ft 104kts
07-Dec-17 09:45 34.620890 -117.150472 355 7712ft 104kts
07-Dec-17 09:46 34.649136 -117.158475 348 7147ft 104kts
07-Dec-17 09:47 34.677131 -117.166553 342 6610ft 104kts
07-Dec-17 09:48 34.703403 -117.180350 326 6647ft 107kts
07-Dec-17 09:48 34.722486 -117.200883 322 6651ft 111kts
07-Dec-17 09:50 34.746606 -117.233635 314 6683ft 111kts
07-Dec-17 09:50 34.762706 -117.257937 308 6707ft 113kts
07-Dec-17 09:51 34.778748 -117.291605 300 6626ft 116kts
07-Dec-17 09:52 34.788563 -117.330827 290 6175ft 122kts
07-Dec-17 09:53 34.785247 -117.367958 217 5709ft 123kts
07-Dec-17 09:54 34.752580 -117.376889 183 5213ft 126kts
07-Dec-17 09:55 34.719748 -117.380142 184 4961ft 118kts
07-Dec-17 09:56 34.686525 -117.382990 182 4583ft 123kts
07-Dec-17 09:57 34.654824 -117.384416 182 4030ft 92kts
07-Dec-17 09:58 34.628996 -117.387260 186 3344ft 95kts
07-Dec-17 09:59 34.602870 -117.394598 238 3744ft 98kts
07-Dec-17 10:00 34.610949 -117.422936 309 4343ft 96kts
07-Dec-17 10:01 34.611667 -117.454890 259 4940ft 98kts
07-Dec-17 10:02 34.609299 -117.487152 289 5485ft 97kts
07-Dec-17 10:03 34.617613 -117.519110 288 5955ft 101kts
07-Dec-17 10:04 34.624289 -117.556265 286 5944ft 118kts
07-Dec-17 10:05 34.645713 -117.558148 73 5358ft 115kts
07-Dec-17 10:06 34.637333 -117.521333 98 4926ft 114kts
07-Dec-17 10:07 34.634578 -117.483092 88 4353ft 110kts
07-Dec-17 10:08 34.634503 -117.447353 89 3828ft 92kts
07-Dec-17 10:09 34.633820 -117.416792 88 3612ft 94kts
07-Dec-17 10:10 34.630572 -117.387956 147 3174ft 84kts
07-Dec-17 10:11 34.614236 -117.386711 179 2819ft 35kts
07-Dec-17 10:12 34.610549 -117.385674 92 2826ft 4kts
07-Dec-17 10:13 34.610554 -117.385485 86 2826ft 10kts
07-Dec-17 10:14 34.607482 -117.384154 180 2833ft 21kts
07-Dec-17 10:15 34.602090 -117.384107 179 2843ft 17kts
07-Dec-17 10:16 34.597370 -117.384056 180 2850ft 15kts
07-Dec-17 10:17 34.593868 -117.382787 134 2859ft 21kts
07-Dec-17 10:18 34.591229 -117.379537 135 2867ft 0kts
07-Dec-17 10:19 34.589496 -117.377399 141 2872ft 15kts
07-Dec-17 10:20 34.587720 -117.375658 290 2876ft 2kts
07-Dec-17 10:21 34.587761 -117.375722 313 2875ft 0kts
07-Dec-17 10:22 34.587761 -117.375722 313 2875ft 0kts

Navigation Log

Ident Type
1. KAJO Airport
2. PDZ Navaid
3. APLES Fix
4. KVCV Airport